CheckWX is a tool to help pilots better visualize weather data.  It is not intended as a substitute for an official pre-flight weather briefing.

16:29:40 UTC

CYEN METAR
Estevan Airport
Estevan, Canada
Current

30 mins ago

CYEN 221600Z AUTO 00000KT 9SM CLR 22/13 A3031 RMK SLP266 DENSITY ALT 2700FT
Observed
Jul-22 @ 16:00 UTC
Visibility
9 SM
Flight Rules
VFR
Cloud Levels
  • Clear skies
Temperature
22°C / 72°F
Dewpoint
13°C / 55°F
Humidity
57%
Altimeter
30.31" Hg
Pressure
1026.42 hPa
Previous

1 hour ago

CYEN 221500Z AUTO VRB02KT 9SM CLR 21/13 A3031 RMK SLP267 DENSITY ALT 2500FT
Observed
Jul-22 @ 15:00 UTC
Wind
  • Variable at 2 KTS
Visibility
9 SM
Flight Rules
VFR
Cloud Levels
  • Clear skies
Temperature
21°C / 70°F
Dewpoint
13°C / 55°F
Humidity
60%
Altimeter
30.31" Hg
Pressure
1026.42 hPa
Previous

2 hours ago

CYEN 221400Z AUTO VRB02KT 9SM CLR 18/14 A3031 RMK SLP269 DENSITY ALT 2200FT
Observed
Jul-22 @ 14:00 UTC
Wind
  • Variable at 2 KTS
Visibility
9 SM
Flight Rules
VFR
Cloud Levels
  • Clear skies
Temperature
18°C / 64°F
Dewpoint
14°C / 57°F
Humidity
78%
Altimeter
30.31" Hg
Pressure
1026.42 hPa